Sitc Xiamen — 3ELU — position and weather

sailwx.info

Track history (hours):
 
Tides and Currents Weather Stations Pressure Air Temp Water Temp Dewpoint Dewpoint Depression Visibility Wind Speed Wind Dir Waves Ship Positions

Sitc Xiamen

Last reported at 2014-Dec-20 04:26 UTC. Time now 2014-Dec-20 09:44 UTC.
Position N 38°12' E 120°05'.

Length 145 m; draft 6.7 m.

Type: Ship (hazmat cat A). MMSI: 355090000.

Date/timePositionNaut miles runAvg speedWind from/ knotsBaromVisibWave heightAir tempDewpointWater temp
2014-Dec-20 04:26N 38°12' E 120°05'1314.5
2014-Dec-20 03:32N 38°07' E 120°20'1414.4
2014-Dec-20 02:33N 38°03' E 120°37'1514.7
2014-Dec-20 01:32N 37°60' E 120°55'1814.6
2014-Dec-20 00:16N 37°55' E 121°18'1314.5
2014-Dec-19 23:20N 37°51' E 121°34'1214.4
2014-Dec-19 22:31N 37°47' E 121°48'1414.3
2014-Dec-19 21:32N 37°43' E 122°06'1414.2
2014-Dec-19 20:33N 37°39' E 122°22'1413.8
2014-Dec-19 19:33N 37°35' E 122°39'44513.0
2014-Dec-18 09:24N 34°03' E 130°42'  
2014-Dec-15 17:18N 33°55' E 130°23'1114.4
2014-Dec-15 16:31N 33°44' E 130°17'8 8.3
2014-Dec-15 15:33N 33°39' E 130°24'0 0.3
2014-Dec-15 14:32N 33°39' E 130°24'0 0.0
2014-Dec-15 13:32N 33°39' E 130°24'0 0.0
2014-Dec-15 12:32N 33°40' E 130°24'0 0.0
2014-Dec-15 11:32N 33°39' E 130°24'0 0.0
2014-Dec-15 10:32N 33°39' E 130°24'0 0.0
2014-Dec-15 09:29N 33°39' E 130°24'0 0.0
2014-Dec-15 08:32N 33°39' E 130°24'0 0.0
2014-Dec-15 07:32N 33°39' E 130°24'0 0.0
2014-Dec-15 06:32N 33°39' E 130°24'0 0.0
2014-Dec-15 05:32N 33°40' E 130°24'2 2.4
2014-Dec-15 04:33N 33°38' E 130°22'1211.8
2014-Dec-15 03:33N 33°44' E 130°09'1313.6
2014-Dec-15 02:33N 33°41' E 129°54'40814.1
2014-Dec-13 21:30N 31°06' E 122°26'1313.8
2014-Dec-13 20:33N 31°10' E 122°11'1313.4
2014-Dec-13 19:34N 31°15' E 121°57'1312.6
2014-Dec-13 18:34N 31°19' E 121°43'4 3.5
2014-Dec-13 17:32N 31°20' E 121°39'0 0.0
2014-Dec-13 16:32N 31°20' E 121°39'0 0.0
2014-Dec-13 15:32N 31°20' E 121°39'0 0.0
2014-Dec-13 14:32N 31°20' E 121°39'0 0.0
2014-Dec-13 13:32N 31°20' E 121°39'0 0.0
2014-Dec-13 12:32N 31°20' E 121°39'0 0.0
2014-Dec-13 11:32N 31°20' E 121°39'0 0.0
2014-Dec-13 10:32N 31°20' E 121°39'0 0.0
2014-Dec-13 09:32N 31°20' E 121°39'0 0.0
2014-Dec-13 08:32N 31°20' E 121°39'0 0.0
2014-Dec-13 07:32N 31°20' E 121°39'0 0.0
2014-Dec-13 06:31N 31°20' E 121°39'3 2.8
2014-Dec-13 05:32N 31°20' E 121°42'1412.6
2014-Dec-13 04:26N 31°15' E 121°57'1213.1
2014-Dec-13 03:33N 31°11' E 122°10'1211.6
2014-Dec-13 02:34N 31°06' E 122°22'41013.7
2014-Dec-11 20:32N 33°40' E 129°52'1414.3
2014-Dec-11 19:33N 33°47' E 130°07'1414.0
2014-Dec-11 18:32N 33°55' E 130°21'7 0.5
2014-Dec-11 04:08N 33°58' E 130°29'814.3
2014-Dec-11 03:33N 33°52' E 130°21'1313.5
2014-Dec-11 02:33N 33°39' E 130°17'6 5.9
2014-Dec-11 01:33N 33°40' E 130°24'0 0.0
2014-Dec-11 00:33N 33°39' E 130°24'0 0.0
2014-Dec-10 23:33N 33°40' E 130°24'0 0.0
2014-Dec-10 22:33N 33°39' E 130°24'0 0.0
2014-Dec-10 21:33N 33°39' E 130°24'0 0.0
2014-Dec-10 20:33N 33°39' E 130°24'0 0.0
2014-Dec-10 19:33N 33°39' E 130°24'0 0.0
2014-Dec-10 18:33N 33°39' E 130°24'0 0.0
2014-Dec-10 17:33N 33°40' E 130°24'0 0.0
2014-Dec-10 16:33N 33°39' E 130°24'0 0.0
2014-Dec-10 15:33N 33°39' E 130°24'0 0.0
2014-Dec-10 14:33N 33°39' E 130°24'0 0.0
2014-Dec-10 13:33N 33°39' E 130°24'7 7.4
2014-Dec-10 12:32N 33°40' E 130°16'9 9.3
2014-Dec-10 11:33N 33°47' E 130°08'  
Track history (hours):
 
Tides and Currents Weather Stations Pressure Air Temp Water Temp Dewpoint Dewpoint Depression Visibility Wind Speed Wind Dir Waves Ship Positions

Sitc Xiamen

Last reported at 2014-Dec-20 04:26 UTC. Time now 2014-Dec-20 09:44 UTC.
Position N 38°12' E 120°05'.

Length 145 m; draft 6.7 m.

Type: Ship (hazmat cat A). MMSI: 355090000.

Date/timePositionNaut miles runAvg speedWind from/ knotsBaromVisibWave heightAir tempDewpointWater temp
2014-Dec-20 04:26N 38°12' E 120°05'1314.5
2014-Dec-20 03:32N 38°07' E 120°20'1414.4
2014-Dec-20 02:33N 38°03' E 120°37'1514.7
2014-Dec-20 01:32N 37°60' E 120°55'1814.6
2014-Dec-20 00:16N 37°55' E 121°18'1314.5
2014-Dec-19 23:20N 37°51' E 121°34'1214.4
2014-Dec-19 22:31N 37°47' E 121°48'1414.3
2014-Dec-19 21:32N 37°43' E 122°06'1414.2
2014-Dec-19 20:33N 37°39' E 122°22'1413.8
2014-Dec-19 19:33N 37°35' E 122°39'44513.0
2014-Dec-18 09:24N 34°03' E 130°42'  
2014-Dec-15 17:18N 33°55' E 130°23'1114.4
2014-Dec-15 16:31N 33°44' E 130°17'8 8.3
2014-Dec-15 15:33N 33°39' E 130°24'0 0.3
2014-Dec-15 14:32N 33°39' E 130°24'0 0.0
2014-Dec-15 13:32N 33°39' E 130°24'0 0.0
2014-Dec-15 12:32N 33°40' E 130°24'0 0.0
2014-Dec-15 11:32N 33°39' E 130°24'0 0.0
2014-Dec-15 10:32N 33°39' E 130°24'0 0.0
2014-Dec-15 09:29N 33°39' E 130°24'0 0.0
2014-Dec-15 08:32N 33°39' E 130°24'0 0.0
2014-Dec-15 07:32N 33°39' E 130°24'0 0.0
2014-Dec-15 06:32N 33°39' E 130°24'0 0.0
2014-Dec-15 05:32N 33°40' E 130°24'2 2.4
2014-Dec-15 04:33N 33°38' E 130°22'1211.8
2014-Dec-15 03:33N 33°44' E 130°09'1313.6
2014-Dec-15 02:33N 33°41' E 129°54'40814.1
2014-Dec-13 21:30N 31°06' E 122°26'1313.8
2014-Dec-13 20:33N 31°10' E 122°11'1313.4
2014-Dec-13 19:34N 31°15' E 121°57'1312.6
2014-Dec-13 18:34N 31°19' E 121°43'4 3.5
2014-Dec-13 17:32N 31°20' E 121°39'0 0.0
2014-Dec-13 16:32N 31°20' E 121°39'0 0.0
2014-Dec-13 15:32N 31°20' E 121°39'0 0.0
2014-Dec-13 14:32N 31°20' E 121°39'0 0.0
2014-Dec-13 13:32N 31°20' E 121°39'0 0.0
2014-Dec-13 12:32N 31°20' E 121°39'0 0.0
2014-Dec-13 11:32N 31°20' E 121°39'0 0.0
2014-Dec-13 10:32N 31°20' E 121°39'0 0.0
2014-Dec-13 09:32N 31°20' E 121°39'0 0.0
2014-Dec-13 08:32N 31°20' E 121°39'0 0.0
2014-Dec-13 07:32N 31°20' E 121°39'0 0.0
2014-Dec-13 06:31N 31°20' E 121°39'3 2.8
2014-Dec-13 05:32N 31°20' E 121°42'1412.6
2014-Dec-13 04:26N 31°15' E 121°57'1213.1
2014-Dec-13 03:33N 31°11' E 122°10'1211.6
2014-Dec-13 02:34N 31°06' E 122°22'41013.7
2014-Dec-11 20:32N 33°40' E 129°52'1414.3
2014-Dec-11 19:33N 33°47' E 130°07'1414.0
2014-Dec-11 18:32N 33°55' E 130°21'7 0.5
2014-Dec-11 04:08N 33°58' E 130°29'814.3
2014-Dec-11 03:33N 33°52' E 130°21'1313.5
2014-Dec-11 02:33N 33°39' E 130°17'6 5.9
2014-Dec-11 01:33N 33°40' E 130°24'0 0.0
2014-Dec-11 00:33N 33°39' E 130°24'0 0.0
2014-Dec-10 23:33N 33°40' E 130°24'0 0.0
2014-Dec-10 22:33N 33°39' E 130°24'0 0.0
2014-Dec-10 21:33N 33°39' E 130°24'0 0.0
2014-Dec-10 20:33N 33°39' E 130°24'0 0.0
2014-Dec-10 19:33N 33°39' E 130°24'0 0.0
2014-Dec-10 18:33N 33°39' E 130°24'0 0.0
2014-Dec-10 17:33N 33°40' E 130°24'0 0.0
2014-Dec-10 16:33N 33°39' E 130°24'0 0.0
2014-Dec-10 15:33N 33°39' E 130°24'0 0.0
2014-Dec-10 14:33N 33°39' E 130°24'0 0.0
2014-Dec-10 13:33N 33°39' E 130°24'7 7.4
2014-Dec-10 12:32N 33°40' E 130°16'9 9.3
2014-Dec-10 11:33N 33°47' E 130°08'  

Dump ship's entire track history